Flight Track Log - Related Links

Times and Time Zones

All times are in EDT time to prevent confusion due to time zone crossing. See the N450S flight status page for this flight to view local times or setup timezone preferences in your user account.

Time Position Orientation Groundspeed Altitude Reporting Facility
EDT Latitude Longitude Course Direction KTS MPH feet Rate Location/Type
Thu 01:57:52 PM 41.4275 -82.6961 271° West 165 190 1,800  Level Cleveland Center
Thu 01:58:47 PM 41.4286 -82.7600 272° West 171 197 3,000 626 Climbing Cleveland Center
Thu 01:59:47 PM 41.4311 -82.8375 271° West 201 231 3,000 69 Level Cleveland Center
Thu 02:01:40 PM 41.4328 -82.9622 279° West 177 204 3,200 555 Climbing Cleveland Center
Thu 02:02:40 PM 41.4400 -83.0233 266° West 172 198 4,600 1,488 Climbing Cleveland Center
Thu 02:03:41 PM 41.4364 -83.0869 276° West 172 198 6,200 1,650 Climbing Cleveland Center
Thu 02:04:40 PM 41.4411 -83.1508 271° West 177 204 7,900 1,513 Climbing Cleveland Center
Thu 02:05:40 PM 41.4419 -83.2119 271° West 188 216 9,200 1,400 Climbing Cleveland Center
Thu 02:06:40 PM 41.4425 -83.2783 273° West 188 216 10,700 1,550 Climbing Cleveland Center
Thu 02:07:40 PM 41.4453 -83.3422 270° West 182 209 12,300 1,550 Climbing Cleveland Center
Thu 02:08:40 PM 41.4456 -83.4061 271° West 182 209 13,800 1,500 Climbing Cleveland Center
Thu 02:09:40 PM 41.4461 -83.4753 272° West 177 204 15,300 1,600 Climbing Cleveland Center
Thu 02:10:40 PM 41.4481 -83.5531 271° West 182 209 17,000 1,600 Climbing Cleveland Center
Thu 02:11:40 PM 41.4486 -83.6167 272° West 182 209 18,500 1,500 Climbing Cleveland Center
Thu 02:12:40 PM 41.4508 -83.6861 274° West 182 209 20,000 750 Climbing Cleveland Center
Thu 02:13:40 PM 41.4550 -83.7639 276° West 195 224 20,000  Level Cleveland Center
Thu 02:14:40 PM 41.4611 -83.8472 273° West 223 257 20,000  Level Cleveland Center
Thu 02:15:40 PM 41.4647 -83.9389 271° West 244 281 20,000  Level Cleveland Center
Thu 02:16:40 PM 41.4661 -84.0306 275° West 250 288 20,000  Level Cleveland Center
Thu 02:17:40 PM 41.4717 -84.1222 273° West 250 288 20,000  Level Cleveland Center
Thu 02:18:40 PM 41.4753 -84.2056 271° West 255 293 20,000  Level Cleveland Center
Thu 02:19:40 PM 41.4764 -84.2972 274° West 255 293 20,000  Level Cleveland Center
Thu 02:20:40 PM 41.4817 -84.3917 273° West 255 293 20,000  Level Cleveland Center
Thu 02:21:40 PM 41.4850 -84.4778 272° West 249 287 20,000  Level Cleveland Center
Thu 02:22:40 PM 41.4881 -84.5725 270° West 249 287 20,000  Level Cleveland Center
Thu 02:23:57 PM 41.4883 -84.6894 273° West 242 278 20,000  Level Chicago Center
Thu 02:24:57 PM 41.4922 -84.7808 275° West 242 278 20,000  Level Chicago Center
Thu 02:25:57 PM 41.4975 -84.8664 271° West 247 284 20,000  Level Chicago Center
Thu 02:26:57 PM 41.4992 -84.9578 273° West 252 290 20,000  Level Chicago Center
Thu 02:27:57 PM 41.5025 -85.0519 271° West 252 290 20,000  Level Chicago Center
Thu 02:28:57 PM 41.5042 -85.1517 271° West 252 290 20,000  Level Chicago Center
Thu 02:29:57 PM 41.5056 -85.2431 275° West 252 290 20,000  Level Chicago Center
Thu 02:30:57 PM 41.5108 -85.3314 271° West 252 290 20,000  Level Chicago Center
Thu 02:31:57 PM 41.5119 -85.4258 273° West 252 290 20,000 -750 Level Chicago Center
Thu 02:32:57 PM 41.5153 -85.5228 271° West 252 290 18,500 -1,650 Descending Chicago Center
Thu 02:33:57 PM 41.5164 -85.6253 273° West 266 306 16,700 -1,600 Descending Chicago Center
Thu 02:34:57 PM 41.5194 -85.7167 272° West 272 313 15,300 -1,250 Descending Chicago Center
Thu 02:35:57 PM 41.5225 -85.8164 271° West 272 313 14,200 -1,100 Descending Chicago Center
Thu 02:36:57 PM 41.5233 -85.9078 272° West 265 305 13,100 -1,100 Descending Chicago Center
Thu 02:37:57 PM 41.5264 -86.0131 270° West 268 308 12,000 -1,050 Descending Chicago Center
Thu 02:38:57 PM 41.5269 -86.1047 269° West 268 308 11,000 -500 Descending Chicago Center
Thu 02:39:57 PM 41.5253 -86.1961 271° West 268 308 11,000 -500 Level Chicago Center
Thu 02:40:57 PM 41.5261 -86.2989 270° West 262 302 10,000 -1,000 Descending Chicago Center
Thu 02:41:57 PM 41.5261 -86.3847 268° West 257 296 9,000 -545 Descending Chicago Center
Thu 02:42:58 PM 41.5242 -86.4681 272° West 248 285 8,900  Descending Chicago Center
Thu 02:43:57 PM 41.5261 -86.5458 268° West 227 261 9,000 50 Climbing Chicago Center
Thu 02:44:57 PM 41.5239 -86.6233 270° West 217 250 9,000  Level Chicago Center
Thu 02:45:57 PM 41.5236 -86.7011 268° West 217 250 9,000 -400 Level Chicago Center
Thu 02:46:57 PM 41.5214 -86.7844 270° West 217 250 8,200 -950 Descending Chicago Center
Thu 02:47:57 PM 41.5211 -86.8706 270° West 222 255 7,100 -1,000 Descending Chicago Center
Thu 02:48:57 PM 41.5208 -86.9508 268° West 227 261 6,200 -386 Descending Chicago Center
Thu 02:50:48 PM 41.5167 -87.1000 270° West 202 232 6,000 -70 Descending Chicago TRACON
Thu 02:51:48 PM 41.5167 -87.1833 270° West 207 238 6,000  Level Chicago TRACON
Thu 02:52:54 PM 41.5167 -87.2500 270° West 200 230 6,000 -50 Level Chicago TRACON
Thu 02:53:48 PM 41.5167 -87.3333 270° West 199 229 5,900 -579 Descending Chicago TRACON
Thu 02:54:48 PM 41.5167 -87.4000 270° West 214 246 4,900 -900 Descending Chicago TRACON
Thu 02:55:48 PM 41.5167 -87.4833 270° West 209 241 4,100 -450 Descending Chicago TRACON
Thu 02:56:48 PM 41.5167 -87.5500 270° West 207 238 4,000 -50 Descending Chicago TRACON
Thu 02:57:48 PM 41.5167 -87.6333 304° West 211 243 4,000  Level Chicago TRACON
Thu 02:58:48 PM 41.5500 -87.7000 285° West 207 238 4,000  Level Chicago TRACON
Thu 02:59:48 PM 41.5667 -87.7833 270° West 188 216 4,000 -50 Level Chicago TRACON
Thu 03:00:48 PM 41.5667 -87.8333 312° West 177 204 3,900 -450 Descending Chicago TRACON
Thu 03:01:48 PM 41.6000 -87.8833 346° North 192 221 3,100 -500 Descending Chicago TRACON
Thu 03:02:48 PM 41.6500 -87.9000 37° Northeast 185 213 2,900 -50 Descending Chicago TRACON
Thu 03:03:48 PM 41.6833 -87.8667 26° Northeast 177 204 3,000 -350 Climbing Chicago TRACON
Thu 03:04:48 PM 41.7333 -87.8333 56° Northeast 174 200 2,200 -800 Descending Chicago TRACON
Thu 03:05:48 PM 41.7500 -87.8000 56° Northeast 144 166 1,400 -800 Descending Chicago TRACON

Login

Don't have an account? Register now (free) for customized features, flight alerts, and more!